sensor_id;sensor_type;location;lat;lon;timestamp;P1;durP1;ratioP1;P2;durP2;ratioP2
75993;SDS011;64680;53.800;9.988;2023-10-19T00:01:06;6.63;;;3.83;;
75993;SDS011;64680;53.800;9.988;2023-10-19T00:03:35;8.15;;;3.92;;
75993;SDS011;64680;53.800;9.988;2023-10-19T00:06:00;7.50;;;4.10;;
75993;SDS011;64680;53.800;9.988;2023-10-19T00:08:26;7.18;;;4.22;;
75993;SDS011;64680;53.800;9.988;2023-10-19T00:11:01;7.38;;;4.25;;
75993;SDS011;64680;53.800;9.988;2023-10-19T00:13:29;8.18;;;4.65;;
75993;SDS011;64680;53.800;9.988;2023-10-19T00:15:55;7.55;;;4.70;;
75993;SDS011;64680;53.800;9.988;2023-10-19T00:18:22;10.05;;;4.97;;
75993;SDS011;64680;53.800;9.988;2023-10-19T00:20:55;8.13;;;4.28;;
75993;SDS011;64680;53.800;9.988;2023-10-19T00:23:43;8.10;;;4.20;;
75993;SDS011;64680;53.800;9.988;2023-10-19T00:26:12;9.15;;;4.45;;
75993;SDS011;64680;53.800;9.988;2023-10-19T00:28:50;6.78;;;3.50;;
75993;SDS011;64680;53.800;9.988;2023-10-19T00:31:26;9.90;;;4.45;;
75993;SDS011;64680;53.800;9.988;2023-10-19T00:33:58;8.02;;;4.30;;
75993;SDS011;64680;53.800;9.988;2023-10-19T00:36:26;8.05;;;4.05;;
75993;SDS011;64680;53.800;9.988;2023-10-19T00:38:51;8.68;;;5.20;;
75993;SDS011;64680;53.800;9.988;2023-10-19T00:41:22;8.15;;;4.45;;
75993;SDS011;64680;53.800;9.988;2023-10-19T00:43:56;7.05;;;4.72;;
75993;SDS011;64680;53.800;9.988;2023-10-19T00:46:27;8.23;;;4.57;;
75993;SDS011;64680;53.800;9.988;2023-10-19T00:49:08;7.25;;;4.10;;
75993;SDS011;64680;53.800;9.988;2023-10-19T00:54:27;9.63;;;4.70;;
75993;SDS011;64680;53.800;9.988;2023-10-19T00:57:01;10.88;;;5.07;;
75993;SDS011;64680;53.800;9.988;2023-10-19T00:59:36;8.13;;;4.85;;
75993;SDS011;64680;53.800;9.988;2023-10-19T01:02:12;8.25;;;4.90;;
75993;SDS011;64680;53.800;9.988;2023-10-19T01:04:56;9.95;;;4.20;;
75993;SDS011;64680;53.800;9.988;2023-10-19T01:07:26;7.28;;;4.38;;
75993;SDS011;64680;53.800;9.988;2023-10-19T01:09:54;8.23;;;4.35;;
75993;SDS011;64680;53.800;9.988;2023-10-19T01:12:22;8.18;;;4.57;;
75993;SDS011;64680;53.800;9.988;2023-10-19T01:17:42;8.98;;;4.93;;
75993;SDS011;64680;53.800;9.988;2023-10-19T01:20:10;9.68;;;4.65;;
75993;SDS011;64680;53.800;9.988;2023-10-19T01:23:05;7.63;;;4.28;;
75993;SDS011;64680;53.800;9.988;2023-10-19T01:28:06;7.53;;;4.60;;
75993;SDS011;64680;53.800;9.988;2023-10-19T01:30:34;7.68;;;4.50;;
75993;SDS011;64680;53.800;9.988;2023-10-19T01:33:01;10.43;;;5.50;;
75993;SDS011;64680;53.800;9.988;2023-10-19T01:35:37;10.30;;;5.10;;
75993;SDS011;64680;53.800;9.988;2023-10-19T01:38:25;10.10;;;5.53;;
75993;SDS011;64680;53.800;9.988;2023-10-19T01:40:55;8.05;;;4.60;;
75993;SDS011;64680;53.800;9.988;2023-10-19T01:43:24;10.98;;;5.18;;
75993;SDS011;64680;53.800;9.988;2023-10-19T01:45:53;8.55;;;4.95;;
75993;SDS011;64680;53.800;9.988;2023-10-19T01:48:20;9.07;;;4.90;;
75993;SDS011;64680;53.800;9.988;2023-10-19T01:50:48;11.60;;;5.28;;
75993;SDS011;64680;53.800;9.988;2023-10-19T01:53:16;9.48;;;4.57;;
75993;SDS011;64680;53.800;9.988;2023-10-19T01:55:43;8.52;;;5.40;;
75993;SDS011;64680;53.800;9.988;2023-10-19T01:58:12;9.77;;;5.10;;
75993;SDS011;64680;53.800;9.988;2023-10-19T02:00:42;9.40;;;5.10;;
75993;SDS011;64680;53.800;9.988;2023-10-19T02:03:09;11.63;;;5.15;;
75993;SDS011;64680;53.800;9.988;2023-10-19T02:05:34;16.50;;;5.65;;
75993;SDS011;64680;53.800;9.988;2023-10-19T02:08:07;9.13;;;4.75;;
75993;SDS011;64680;53.800;9.988;2023-10-19T02:10:33;11.02;;;5.20;;
75993;SDS011;64680;53.800;9.988;2023-10-19T02:13:00;11.77;;;5.00;;
75993;SDS011;64680;53.800;9.988;2023-10-19T02:15:31;10.15;;;5.20;;
75993;SDS011;64680;53.800;9.988;2023-10-19T02:18:01;10.73;;;5.78;;
75993;SDS011;64680;53.800;9.988;2023-10-19T02:20:28;9.20;;;5.05;;
75993;SDS011;64680;53.800;9.988;2023-10-19T02:22:54;9.88;;;5.72;;
75993;SDS011;64680;53.800;9.988;2023-10-19T02:25:22;10.23;;;5.13;;
75993;SDS011;64680;53.800;9.988;2023-10-19T02:27:53;9.52;;;5.25;;
75993;SDS011;64680;53.800;9.988;2023-10-19T02:30:19;10.05;;;5.30;;
75993;SDS011;64680;53.800;9.988;2023-10-19T02:32:44;8.65;;;5.10;;
75993;SDS011;64680;53.800;9.988;2023-10-19T02:35:12;9.82;;;5.68;;
75993;SDS011;64680;53.800;9.988;2023-10-19T02:37:39;10.65;;;5.10;;
75993;SDS011;64680;53.800;9.988;2023-10-19T02:40:05;9.43;;;4.85;;
75993;SDS011;64680;53.800;9.988;2023-10-19T02:42:44;9.27;;;5.03;;
75993;SDS011;64680;53.800;9.988;2023-10-19T02:47:44;9.75;;;5.10;;
75993;SDS011;64680;53.800;9.988;2023-10-19T02:50:10;9.93;;;4.90;;
75993;SDS011;64680;53.800;9.988;2023-10-19T02:52:41;10.35;;;5.60;;
75993;SDS011;64680;53.800;9.988;2023-10-19T02:55:08;10.57;;;5.50;;
75993;SDS011;64680;53.800;9.988;2023-10-19T02:57:34;11.77;;;5.13;;
75993;SDS011;64680;53.800;9.988;2023-10-19T03:00:01;10.38;;;5.53;;
75993;SDS011;64680;53.800;9.988;2023-10-19T03:02:33;10.02;;;4.53;;
75993;SDS011;64680;53.800;9.988;2023-10-19T03:05:01;12.48;;;5.65;;
75993;SDS011;64680;53.800;9.988;2023-10-19T03:07:34;13.32;;;6.00;;
75993;SDS011;64680;53.800;9.988;2023-10-19T03:09:59;9.68;;;5.32;;
75993;SDS011;64680;53.800;9.988;2023-10-19T03:12:27;11.45;;;5.18;;
75993;SDS011;64680;53.800;9.988;2023-10-19T03:14:52;10.98;;;5.30;;
75993;SDS011;64680;53.800;9.988;2023-10-19T03:17:18;13.20;;;6.15;;
75993;SDS011;64680;53.800;9.988;2023-10-19T03:19:44;9.30;;;5.68;;
75993;SDS011;64680;53.800;9.988;2023-10-19T03:22:09;11.75;;;5.85;;
75993;SDS011;64680;53.800;9.988;2023-10-19T03:24:36;11.25;;;5.50;;
75993;SDS011;64680;53.800;9.988;2023-10-19T03:27:09;11.05;;;6.35;;
75993;SDS011;64680;53.800;9.988;2023-10-19T03:29:47;11.80;;;5.65;;
75993;SDS011;64680;53.800;9.988;2023-10-19T03:32:18;10.05;;;5.50;;
75993;SDS011;64680;53.800;9.988;2023-10-19T03:34:47;10.73;;;5.88;;
75993;SDS011;64680;53.800;9.988;2023-10-19T03:37:14;10.30;;;5.20;;
75993;SDS011;64680;53.800;9.988;2023-10-19T03:39:39;10.57;;;5.30;;
75993;SDS011;64680;53.800;9.988;2023-10-19T03:42:06;10.05;;;5.28;;
75993;SDS011;64680;53.800;9.988;2023-10-19T03:44:33;10.25;;;5.53;;
75993;SDS011;64680;53.800;9.988;2023-10-19T03:47:08;12.88;;;5.70;;
75993;SDS011;64680;53.800;9.988;2023-10-19T03:49:37;10.75;;;6.15;;
75993;SDS011;64680;53.800;9.988;2023-10-19T03:52:04;8.70;;;4.97;;
75993;SDS011;64680;53.800;9.988;2023-10-19T03:54:33;9.60;;;5.28;;
75993;SDS011;64680;53.800;9.988;2023-10-19T03:57:03;9.88;;;5.75;;
75993;SDS011;64680;53.800;9.988;2023-10-19T03:59:32;12.10;;;5.32;;
75993;SDS011;64680;53.800;9.988;2023-10-19T04:02:02;11.90;;;5.53;;
75993;SDS011;64680;53.800;9.988;2023-10-19T04:04:34;11.88;;;5.93;;
75993;SDS011;64680;53.800;9.988;2023-10-19T04:07:00;9.52;;;5.45;;
75993;SDS011;64680;53.800;9.988;2023-10-19T04:09:35;13.60;;;6.80;;
75993;SDS011;64680;53.800;9.988;2023-10-19T04:12:05;13.85;;;6.25;;
75993;SDS011;64680;53.800;9.988;2023-10-19T04:14:32;12.05;;;6.35;;
75993;SDS011;64680;53.800;9.988;2023-10-19T04:16:57;12.70;;;6.10;;
75993;SDS011;64680;53.800;9.988;2023-10-19T04:19:24;9.98;;;5.03;;
75993;SDS011;64680;53.800;9.988;2023-10-19T04:21:49;11.55;;;6.38;;
75993;SDS011;64680;53.800;9.988;2023-10-19T04:24:16;10.68;;;5.60;;
75993;SDS011;64680;53.800;9.988;2023-10-19T04:26:44;12.27;;;6.57;;
75993;SDS011;64680;53.800;9.988;2023-10-19T04:29:09;11.98;;;6.13;;
75993;SDS011;64680;53.800;9.988;2023-10-19T04:31:36;13.38;;;6.85;;
75993;SDS011;64680;53.800;9.988;2023-10-19T04:34:21;10.48;;;6.03;;
75993;SDS011;64680;53.800;9.988;2023-10-19T04:36:47;12.30;;;7.03;;
75993;SDS011;64680;53.800;9.988;2023-10-19T04:39:13;12.38;;;6.65;;
75993;SDS011;64680;53.800;9.988;2023-10-19T04:41:39;12.93;;;6.80;;
75993;SDS011;64680;53.800;9.988;2023-10-19T04:44:06;10.27;;;6.30;;
75993;SDS011;64680;53.800;9.988;2023-10-19T04:46:33;12.68;;;7.10;;
75993;SDS011;64680;53.800;9.988;2023-10-19T04:48:59;14.23;;;7.10;;
75993;SDS011;64680;53.800;9.988;2023-10-19T04:51:25;14.25;;;7.30;;
75993;SDS011;64680;53.800;9.988;2023-10-19T04:53:51;13.98;;;7.13;;
75993;SDS011;64680;53.800;9.988;2023-10-19T04:56:17;13.40;;;7.00;;
75993;SDS011;64680;53.800;9.988;2023-10-19T04:58:42;14.50;;;7.50;;
75993;SDS011;64680;53.800;9.988;2023-10-19T05:01:08;15.23;;;7.45;;
75993;SDS011;64680;53.800;9.988;2023-10-19T05:06:02;14.88;;;7.38;;
75993;SDS011;64680;53.800;9.988;2023-10-19T05:08:28;16.20;;;7.38;;
75993;SDS011;64680;53.800;9.988;2023-10-19T05:10:54;15.98;;;7.13;;
75993;SDS011;64680;53.800;9.988;2023-10-19T05:13:23;15.95;;;8.00;;
75993;SDS011;64680;53.800;9.988;2023-10-19T05:15:50;17.15;;;8.25;;
75993;SDS011;64680;53.800;9.988;2023-10-19T05:18:19;17.80;;;7.72;;
75993;SDS011;64680;53.800;9.988;2023-10-19T05:20:46;15.20;;;7.90;;
75993;SDS011;64680;53.800;9.988;2023-10-19T05:23:12;14.15;;;7.07;;
75993;SDS011;64680;53.800;9.988;2023-10-19T05:25:40;15.70;;;7.82;;
75993;SDS011;64680;53.800;9.988;2023-10-19T05:28:06;14.77;;;7.97;;
75993;SDS011;64680;53.800;9.988;2023-10-19T05:30:33;16.02;;;8.18;;
75993;SDS011;64680;53.800;9.988;2023-10-19T05:33:00;15.77;;;8.15;;
75993;SDS011;64680;53.800;9.988;2023-10-19T05:35:31;18.17;;;8.55;;
75993;SDS011;64680;53.800;9.988;2023-10-19T05:38:00;15.35;;;8.63;;
75993;SDS011;64680;53.800;9.988;2023-10-19T05:40:26;18.65;;;8.32;;
75993;SDS011;64680;53.800;9.988;2023-10-19T05:42:55;15.55;;;7.53;;
75993;SDS011;64680;53.800;9.988;2023-10-19T05:45:22;16.58;;;9.07;;
75993;SDS011;64680;53.800;9.988;2023-10-19T05:47:48;20.30;;;8.27;;
75993;SDS011;64680;53.800;9.988;2023-10-19T05:50:13;17.13;;;8.77;;
75993;SDS011;64680;53.800;9.988;2023-10-19T05:52:43;15.48;;;8.10;;
75993;SDS011;64680;53.800;9.988;2023-10-19T05:55:09;18.17;;;8.40;;
75993;SDS011;64680;53.800;9.988;2023-10-19T05:57:38;16.17;;;7.22;;
75993;SDS011;64680;53.800;9.988;2023-10-19T06:00:08;20.00;;;8.40;;
75993;SDS011;64680;53.800;9.988;2023-10-19T06:02:42;15.93;;;7.88;;
75993;SDS011;64680;53.800;9.988;2023-10-19T06:05:15;17.25;;;8.07;;
75993;SDS011;64680;53.800;9.988;2023-10-19T06:07:44;15.73;;;7.63;;
75993;SDS011;64680;53.800;9.988;2023-10-19T06:10:12;15.70;;;8.25;;
75993;SDS011;64680;53.800;9.988;2023-10-19T06:12:43;15.93;;;7.95;;
75993;SDS011;64680;53.800;9.988;2023-10-19T06:15:13;17.00;;;9.18;;
75993;SDS011;64680;53.800;9.988;2023-10-19T06:17:41;16.98;;;7.55;;
75993;SDS011;64680;53.800;9.988;2023-10-19T06:20:07;15.82;;;7.80;;
75993;SDS011;64680;53.800;9.988;2023-10-19T06:22:44;18.83;;;8.02;;
75993;SDS011;64680;53.800;9.988;2023-10-19T06:25:24;15.95;;;8.18;;
75993;SDS011;64680;53.800;9.988;2023-10-19T06:27:50;13.40;;;7.15;;
75993;SDS011;64680;53.800;9.988;2023-10-19T06:30:17;15.52;;;7.47;;
75993;SDS011;64680;53.800;9.988;2023-10-19T06:32:47;15.75;;;8.10;;
75993;SDS011;64680;53.800;9.988;2023-10-19T06:35:18;16.50;;;8.38;;
75993;SDS011;64680;53.800;9.988;2023-10-19T06:37:44;15.90;;;7.75;;
75993;SDS011;64680;53.800;9.988;2023-10-19T06:40:10;15.25;;;7.82;;
75993;SDS011;64680;53.800;9.988;2023-10-19T06:42:39;15.50;;;7.63;;
75993;SDS011;64680;53.800;9.988;2023-10-19T06:45:06;17.23;;;7.90;;
75993;SDS011;64680;53.800;9.988;2023-10-19T06:47:32;14.45;;;7.40;;
75993;SDS011;64680;53.800;9.988;2023-10-19T06:50:03;13.73;;;7.32;;
75993;SDS011;64680;53.800;9.988;2023-10-19T06:52:34;17.85;;;8.00;;
75993;SDS011;64680;53.800;9.988;2023-10-19T06:55:05;18.25;;;7.40;;
75993;SDS011;64680;53.800;9.988;2023-10-19T06:58:01;16.70;;;7.25;;
75993;SDS011;64680;53.800;9.988;2023-10-19T07:00:27;16.63;;;7.80;;
75993;SDS011;64680;53.800;9.988;2023-10-19T07:02:54;16.08;;;7.40;;
75993;SDS011;64680;53.800;9.988;2023-10-19T07:07:47;15.57;;;7.28;;
75993;SDS011;64680;53.800;9.988;2023-10-19T07:10:15;19.50;;;8.40;;
75993;SDS011;64680;53.800;9.988;2023-10-19T07:12:43;16.95;;;8.18;;
75993;SDS011;64680;53.800;9.988;2023-10-19T07:15:10;16.25;;;7.55;;
75993;SDS011;64680;53.800;9.988;2023-10-19T07:17:39;16.27;;;8.15;;
75993;SDS011;64680;53.800;9.988;2023-10-19T07:20:09;15.80;;;8.15;;
75993;SDS011;64680;53.800;9.988;2023-10-19T07:22:50;15.50;;;7.55;;
75993;SDS011;64680;53.800;9.988;2023-10-19T07:25:20;16.42;;;7.93;;
75993;SDS011;64680;53.800;9.988;2023-10-19T07:27:47;17.25;;;7.32;;
75993;SDS011;64680;53.800;9.988;2023-10-19T07:30:16;15.55;;;8.30;;
75993;SDS011;64680;53.800;9.988;2023-10-19T07:32:47;15.75;;;7.05;;
75993;SDS011;64680;53.800;9.988;2023-10-19T07:35:19;16.42;;;7.68;;
75993;SDS011;64680;53.800;9.988;2023-10-19T07:37:45;19.50;;;8.63;;
75993;SDS011;64680;53.800;9.988;2023-10-19T07:40:13;13.13;;;6.60;;
75993;SDS011;64680;53.800;9.988;2023-10-19T07:42:39;16.48;;;8.48;;
75993;SDS011;64680;53.800;9.988;2023-10-19T07:45:05;17.58;;;7.72;;
75993;SDS011;64680;53.800;9.988;2023-10-19T07:47:37;18.60;;;8.40;;
75993;SDS011;64680;53.800;9.988;2023-10-19T07:50:05;15.38;;;7.47;;
75993;SDS011;64680;53.800;9.988;2023-10-19T07:52:37;16.48;;;8.35;;
75993;SDS011;64680;53.800;9.988;2023-10-19T07:55:05;14.40;;;7.47;;
75993;SDS011;64680;53.800;9.988;2023-10-19T07:57:32;14.00;;;7.70;;
75993;SDS011;64680;53.800;9.988;2023-10-19T07:59:59;18.55;;;8.75;;
75993;SDS011;64680;53.800;9.988;2023-10-19T08:02:24;16.85;;;7.60;;
75993;SDS011;64680;53.800;9.988;2023-10-19T08:04:50;15.80;;;8.35;;
75993;SDS011;64680;53.800;9.988;2023-10-19T08:07:17;15.77;;;7.97;;
75993;SDS011;64680;53.800;9.988;2023-10-19T08:09:44;15.65;;;7.85;;
75993;SDS011;64680;53.800;9.988;2023-10-19T08:12:09;15.18;;;7.70;;
75993;SDS011;64680;53.800;9.988;2023-10-19T08:17:04;15.45;;;7.57;;
75993;SDS011;64680;53.800;9.988;2023-10-19T08:19:29;16.00;;;8.55;;
75993;SDS011;64680;53.800;9.988;2023-10-19T08:24:23;15.43;;;8.18;;
75993;SDS011;64680;53.800;9.988;2023-10-19T08:26:49;18.45;;;8.60;;
75993;SDS011;64680;53.800;9.988;2023-10-19T08:29:16;15.98;;;8.70;;
75993;SDS011;64680;53.800;9.988;2023-10-19T08:31:42;18.10;;;8.52;;
75993;SDS011;64680;53.800;9.988;2023-10-19T08:34:10;15.52;;;7.43;;
75993;SDS011;64680;53.800;9.988;2023-10-19T08:36:36;16.25;;;8.48;;
75993;SDS011;64680;53.800;9.988;2023-10-19T08:39:06;17.60;;;8.27;;
75993;SDS011;64680;53.800;9.988;2023-10-19T08:41:35;14.98;;;8.23;;
75993;SDS011;64680;53.800;9.988;2023-10-19T08:44:03;14.85;;;7.75;;
75993;SDS011;64680;53.800;9.988;2023-10-19T08:46:35;14.65;;;7.72;;
75993;SDS011;64680;53.800;9.988;2023-10-19T08:49:05;16.08;;;8.55;;
75993;SDS011;64680;53.800;9.988;2023-10-19T08:51:34;18.75;;;8.43;;
75993;SDS011;64680;53.800;9.988;2023-10-19T08:54:01;17.17;;;8.25;;
75993;SDS011;64680;53.800;9.988;2023-10-19T08:56:27;19.63;;;9.00;;
75993;SDS011;64680;53.800;9.988;2023-10-19T08:58:53;18.60;;;8.57;;
75993;SDS011;64680;53.800;9.988;2023-10-19T09:01:19;15.45;;;7.88;;
75993;SDS011;64680;53.800;9.988;2023-10-19T09:03:45;17.27;;;8.45;;
75993;SDS011;64680;53.800;9.988;2023-10-19T09:06:11;16.42;;;8.05;;
75993;SDS011;64680;53.800;9.988;2023-10-19T09:08:37;16.02;;;8.10;;
75993;SDS011;64680;53.800;9.988;2023-10-19T09:11:05;19.77;;;8.52;;
75993;SDS011;64680;53.800;9.988;2023-10-19T09:13:46;15.50;;;8.25;;
75993;SDS011;64680;53.800;9.988;2023-10-19T09:16:14;17.33;;;8.55;;
75993;SDS011;64680;53.800;9.988;2023-10-19T09:18:40;16.13;;;7.95;;
75993;SDS011;64680;53.800;9.988;2023-10-19T09:21:07;17.77;;;9.25;;
75993;SDS011;64680;53.800;9.988;2023-10-19T09:23:36;15.88;;;7.90;;
75993;SDS011;64680;53.800;9.988;2023-10-19T09:26:02;14.98;;;8.13;;
75993;SDS011;64680;53.800;9.988;2023-10-19T09:28:30;16.55;;;8.52;;
75993;SDS011;64680;53.800;9.988;2023-10-19T09:30:58;18.27;;;8.52;;
75993;SDS011;64680;53.800;9.988;2023-10-19T09:33:25;18.38;;;9.60;;
75993;SDS011;64680;53.800;9.988;2023-10-19T09:35:52;19.60;;;8.98;;
75993;SDS011;64680;53.800;9.988;2023-10-19T09:38:19;17.92;;;9.68;;
75993;SDS011;64680;53.800;9.988;2023-10-19T09:40:53;18.83;;;9.15;;
75993;SDS011;64680;53.800;9.988;2023-10-19T09:46:12;17.58;;;8.85;;
75993;SDS011;64680;53.800;9.988;2023-10-19T09:48:46;16.05;;;8.68;;
75993;SDS011;64680;53.800;9.988;2023-10-19T09:51:13;19.52;;;10.07;;
75993;SDS011;64680;53.800;9.988;2023-10-19T09:53:41;15.82;;;8.25;;
75993;SDS011;64680;53.800;9.988;2023-10-19T09:56:10;15.73;;;9.02;;
75993;SDS011;64680;53.800;9.988;2023-10-19T09:58:48;14.52;;;7.85;;
75993;SDS011;64680;53.800;9.988;2023-10-19T10:01:18;12.65;;;7.55;;
75993;SDS011;64680;53.800;9.988;2023-10-19T10:09:19;16.70;;;8.30;;
75993;SDS011;64680;53.800;9.988;2023-10-19T10:11:48;15.75;;;7.57;;
75993;SDS011;64680;53.800;9.988;2023-10-19T10:14:24;16.13;;;8.88;;
75993;SDS011;64680;53.800;9.988;2023-10-19T10:17:02;16.42;;;8.52;;
75993;SDS011;64680;53.800;9.988;2023-10-19T10:19:28;16.42;;;8.20;;
75993;SDS011;64680;53.800;9.988;2023-10-19T10:22:04;13.50;;;7.80;;
75993;SDS011;64680;53.800;9.988;2023-10-19T10:24:46;16.05;;;7.93;;
75993;SDS011;64680;53.800;9.988;2023-10-19T10:27:11;16.17;;;7.95;;
75993;SDS011;64680;53.800;9.988;2023-10-19T10:29:57;18.50;;;8.00;;
75993;SDS011;64680;53.800;9.988;2023-10-19T10:32:42;16.02;;;8.15;;
75993;SDS011;64680;53.800;9.988;2023-10-19T10:35:09;13.65;;;7.82;;
75993;SDS011;64680;53.800;9.988;2023-10-19T10:37:37;14.70;;;8.32;;
75993;SDS011;64680;53.800;9.988;2023-10-19T10:40:05;15.77;;;8.35;;
75993;SDS011;64680;53.800;9.988;2023-10-19T10:42:31;13.93;;;7.85;;
75993;SDS011;64680;53.800;9.988;2023-10-19T10:44:59;16.00;;;8.98;;
75993;SDS011;64680;53.800;9.988;2023-10-19T10:47:24;16.15;;;8.43;;
75993;SDS011;64680;53.800;9.988;2023-10-19T10:49:51;12.98;;;7.22;;
75993;SDS011;64680;53.800;9.988;2023-10-19T10:54:51;17.13;;;8.02;;
75993;SDS011;64680;53.800;9.988;2023-10-19T10:57:17;15.80;;;8.18;;
75993;SDS011;64680;53.800;9.988;2023-10-19T10:59:43;17.20;;;8.07;;
75993;SDS011;64680;53.800;9.988;2023-10-19T11:02:18;15.98;;;8.57;;
75993;SDS011;64680;53.800;9.988;2023-10-19T11:04:44;16.23;;;7.75;;
75993;SDS011;64680;53.800;9.988;2023-10-19T11:07:17;14.98;;;8.30;;
75993;SDS011;64680;53.800;9.988;2023-10-19T11:09:44;17.13;;;8.15;;
75993;SDS011;64680;53.800;9.988;2023-10-19T11:12:13;16.15;;;7.63;;
75993;SDS011;64680;53.800;9.988;2023-10-19T11:14:56;17.27;;;7.88;;
75993;SDS011;64680;53.800;9.988;2023-10-19T11:17:30;15.35;;;8.10;;
75993;SDS011;64680;53.800;9.988;2023-10-19T11:19:56;15.48;;;7.78;;
75993;SDS011;64680;53.800;9.988;2023-10-19T11:22:23;15.32;;;8.55;;
75993;SDS011;64680;53.800;9.988;2023-10-19T11:24:50;17.60;;;9.15;;
75993;SDS011;64680;53.800;9.988;2023-10-19T11:27:26;16.85;;;8.80;;
75993;SDS011;64680;53.800;9.988;2023-10-19T11:29:59;14.48;;;7.75;;
75993;SDS011;64680;53.800;9.988;2023-10-19T11:32:38;16.75;;;8.48;;
75993;SDS011;64680;53.800;9.988;2023-10-19T11:35:04;15.50;;;7.80;;
75993;SDS011;64680;53.800;9.988;2023-10-19T11:37:44;16.30;;;7.80;;
75993;SDS011;64680;53.800;9.988;2023-10-19T11:40:11;14.93;;;7.35;;
75993;SDS011;64680;53.800;9.988;2023-10-19T11:42:37;14.90;;;7.72;;
75993;SDS011;64680;53.800;9.988;2023-10-19T11:45:03;13.70;;;8.52;;
75993;SDS011;64680;53.800;9.988;2023-10-19T11:49:56;16.40;;;8.25;;
75993;SDS011;64680;53.800;9.988;2023-10-19T11:52:22;17.27;;;9.20;;
75993;SDS011;64680;53.800;9.988;2023-10-19T11:54:48;19.17;;;9.30;;
75993;SDS011;64680;53.800;9.988;2023-10-19T11:57:13;17.90;;;8.80;;
75993;SDS011;64680;53.800;9.988;2023-10-19T11:59:39;20.60;;;8.70;;
75993;SDS011;64680;53.800;9.988;2023-10-19T12:02:05;17.73;;;8.43;;
75993;SDS011;64680;53.800;9.988;2023-10-19T12:04:32;19.48;;;9.40;;
75993;SDS011;64680;53.800;9.988;2023-10-19T12:07:01;17.85;;;9.20;;
75993;SDS011;64680;53.800;9.988;2023-10-19T12:09:28;17.45;;;8.63;;
75993;SDS011;64680;53.800;9.988;2023-10-19T12:11:55;18.08;;;9.13;;
75993;SDS011;64680;53.800;9.988;2023-10-19T12:14:20;18.83;;;9.45;;
75993;SDS011;64680;53.800;9.988;2023-10-19T12:16:48;16.42;;;9.02;;
75993;SDS011;64680;53.800;9.988;2023-10-19T12:19:13;19.88;;;8.98;;
75993;SDS011;64680;53.800;9.988;2023-10-19T12:21:39;15.38;;;9.07;;
75993;SDS011;64680;53.800;9.988;2023-10-19T12:24:09;18.60;;;8.85;;
75993;SDS011;64680;53.800;9.988;2023-10-19T12:26:35;17.90;;;9.30;;
75993;SDS011;64680;53.800;9.988;2023-10-19T12:29:01;15.77;;;8.77;;
75993;SDS011;64680;53.800;9.988;2023-10-19T12:31:28;17.38;;;9.45;;
75993;SDS011;64680;53.800;9.988;2023-10-19T12:33:55;16.52;;;9.35;;
75993;SDS011;64680;53.800;9.988;2023-10-19T12:36:21;17.30;;;9.27;;
75993;SDS011;64680;53.800;9.988;2023-10-19T12:38:46;18.70;;;9.23;;
75993;SDS011;64680;53.800;9.988;2023-10-19T12:41:12;15.00;;;8.70;;
75993;SDS011;64680;53.800;9.988;2023-10-19T12:43:39;19.25;;;8.80;;
75993;SDS011;64680;53.800;9.988;2023-10-19T12:46:05;20.17;;;10.05;;
75993;SDS011;64680;53.800;9.988;2023-10-19T12:48:33;17.08;;;8.68;;
75993;SDS011;64680;53.800;9.988;2023-10-19T12:51:00;19.50;;;9.27;;
75993;SDS011;64680;53.800;9.988;2023-10-19T12:53:27;18.42;;;9.52;;
75993;SDS011;64680;53.800;9.988;2023-10-19T12:55:52;19.77;;;10.07;;
75993;SDS011;64680;53.800;9.988;2023-10-19T12:58:18;17.73;;;8.88;;
75993;SDS011;64680;53.800;9.988;2023-10-19T13:00:47;16.92;;;9.73;;
75993;SDS011;64680;53.800;9.988;2023-10-19T13:03:13;18.50;;;9.50;;
75993;SDS011;64680;53.800;9.988;2023-10-19T13:05:41;17.38;;;9.25;;
75993;SDS011;64680;53.800;9.988;2023-10-19T13:10:38;20.25;;;9.55;;
75993;SDS011;64680;53.800;9.988;2023-10-19T13:13:07;17.90;;;9.07;;
75993;SDS011;64680;53.800;9.988;2023-10-19T13:15:36;15.55;;;8.38;;
75993;SDS011;64680;53.800;9.988;2023-10-19T13:18:04;19.58;;;9.25;;
75993;SDS011;64680;53.800;9.988;2023-10-19T13:20:31;18.77;;;11.10;;
75993;SDS011;64680;53.800;9.988;2023-10-19T13:23:01;17.80;;;9.57;;
75993;SDS011;64680;53.800;9.988;2023-10-19T13:25:31;19.70;;;9.45;;
75993;SDS011;64680;53.800;9.988;2023-10-19T13:28:15;16.67;;;9.15;;
75993;SDS011;64680;53.800;9.988;2023-10-19T13:30:42;18.85;;;10.20;;
75993;SDS011;64680;53.800;9.988;2023-10-19T13:33:12;16.55;;;9.35;;
75993;SDS011;64680;53.800;9.988;2023-10-19T13:35:39;17.15;;;9.18;;
75993;SDS011;64680;53.800;9.988;2023-10-19T13:38:07;15.27;;;8.73;;
75993;SDS011;64680;53.800;9.988;2023-10-19T13:40:34;18.15;;;8.48;;
75993;SDS011;64680;53.800;9.988;2023-10-19T13:43:01;17.42;;;9.32;;
75993;SDS011;64680;53.800;9.988;2023-10-19T13:45:31;18.92;;;8.60;;
75993;SDS011;64680;53.800;9.988;2023-10-19T13:47:58;16.48;;;8.82;;
75993;SDS011;64680;53.800;9.988;2023-10-19T13:50:25;19.90;;;10.23;;
75993;SDS011;64680;53.800;9.988;2023-10-19T13:52:55;18.45;;;9.48;;
75993;SDS011;64680;53.800;9.988;2023-10-19T13:55:25;16.30;;;8.60;;
75993;SDS011;64680;53.800;9.988;2023-10-19T13:57:51;19.13;;;9.15;;
75993;SDS011;64680;53.800;9.988;2023-10-19T14:00:18;17.27;;;8.88;;
75993;SDS011;64680;53.800;9.988;2023-10-19T14:03:05;18.10;;;9.02;;
75993;SDS011;64680;53.800;9.988;2023-10-19T14:05:39;18.42;;;9.00;;
75993;SDS011;64680;53.800;9.988;2023-10-19T14:08:07;17.23;;;9.48;;
75993;SDS011;64680;53.800;9.988;2023-10-19T14:10:34;18.85;;;9.73;;
75993;SDS011;64680;53.800;9.988;2023-10-19T14:13:00;23.55;;;10.98;;
75993;SDS011;64680;53.800;9.988;2023-10-19T14:15:26;19.30;;;9.32;;
75993;SDS011;64680;53.800;9.988;2023-10-19T14:17:53;18.83;;;9.65;;
75993;SDS011;64680;53.800;9.988;2023-10-19T14:20:21;18.95;;;8.70;;
75993;SDS011;64680;53.800;9.988;2023-10-19T14:22:50;22.55;;;10.30;;
75993;SDS011;64680;53.800;9.988;2023-10-19T14:25:19;17.20;;;9.23;;
75993;SDS011;64680;53.800;9.988;2023-10-19T14:32:40;16.90;;;8.60;;
75993;SDS011;64680;53.800;9.988;2023-10-19T14:35:09;19.98;;;9.45;;
75993;SDS011;64680;53.800;9.988;2023-10-19T14:37:40;19.65;;;10.23;;
75993;SDS011;64680;53.800;9.988;2023-10-19T14:40:13;19.95;;;9.02;;
75993;SDS011;64680;53.800;9.988;2023-10-19T14:42:41;22.08;;;9.40;;
75993;SDS011;64680;53.800;9.988;2023-10-19T14:45:25;19.30;;;9.93;;
75993;SDS011;64680;53.800;9.988;2023-10-19T14:47:55;18.75;;;9.95;;
75993;SDS011;64680;53.800;9.988;2023-10-19T14:50:28;22.73;;;10.43;;
75993;SDS011;64680;53.800;9.988;2023-10-19T14:52:54;19.33;;;10.02;;
75993;SDS011;64680;53.800;9.988;2023-10-19T14:55:20;20.23;;;9.95;;
75993;SDS011;64680;53.800;9.988;2023-10-19T14:57:46;22.08;;;9.70;;
75993;SDS011;64680;53.800;9.988;2023-10-19T15:00:14;20.60;;;9.75;;
75993;SDS011;64680;53.800;9.988;2023-10-19T15:02:44;18.38;;;9.57;;
75993;SDS011;64680;53.800;9.988;2023-10-19T15:05:10;17.73;;;10.15;;
75993;SDS011;64680;53.800;9.988;2023-10-19T15:07:44;18.38;;;9.82;;
75993;SDS011;64680;53.800;9.988;2023-10-19T15:10:24;20.23;;;11.13;;
75993;SDS011;64680;53.800;9.988;2023-10-19T15:12:50;21.48;;;9.55;;
75993;SDS011;64680;53.800;9.988;2023-10-19T15:15:17;21.77;;;10.52;;
75993;SDS011;64680;53.800;9.988;2023-10-19T15:17:43;17.83;;;9.35;;
75993;SDS011;64680;53.800;9.988;2023-10-19T15:20:10;17.00;;;9.88;;
75993;SDS011;64680;53.800;9.988;2023-10-19T15:22:43;18.70;;;10.75;;
75993;SDS011;64680;53.800;9.988;2023-10-19T15:25:13;17.80;;;9.40;;
75993;SDS011;64680;53.800;9.988;2023-10-19T15:27:40;19.35;;;10.70;;